This is the latest recevied weather packets stored in our database for station/object HARMAJA. If no packets are shown the sender has not sent any weather packets the latest 1 day(s).
| Time | Temp. | Humidity | Pressure | Rain* | Wind** | Luminosity | Snow |
|---|---|---|---|---|---|---|---|
| 1777988836 | 6.67° C | 79% | 1005.1 hPa | - | 9.39 m/s, 232° | - | - |
| 1777987636 | 6.67° C | 76% | 1005 hPa | - | 8.49 m/s, 236° | - | - |
| 1777986436 | 7.22° C | 75% | 1004.9 hPa | - | 8.94 m/s, 235° | - | - |
| 1777985236 | 7.22° C | 76% | 1004.8 hPa | - | 9.83 m/s, 234° | - | - |
| 1777984036 | 7.22° C | 79% | 1004.6 hPa | - | 9.39 m/s, 238° | - | - |
| 1777982836 | 7.78° C | 74% | 1004.4 hPa | - | 8.49 m/s, 231° | - | - |
| 1777981636 | 8.33° C | 70% | 1004.1 hPa | - | 8.49 m/s, 235° | - | - |
| 1777980436 | 8.33° C | 68% | 1003.9 hPa | - | 8.94 m/s, 242° | - | - |
| 1777979235 | 7.78° C | 75% | 1003.5 hPa | - | 9.39 m/s, 233° | - | - |
| 1777978036 | 7.22° C | 80% | 1003.3 hPa | - | 9.83 m/s, 235° | - | - |
| 1777976835 | 7.22° C | 82% | 1003 hPa | - | 11.62 m/s, 233° | - | - |
| 1777975636 | 6.67° C | 83% | 1002.8 hPa | - | 12.07 m/s, 231° | - | - |
| 1777974435 | 6.67° C | 84% | 1002.6 hPa | - | 12.96 m/s, 231° | - | - |
| 1777973235 | 6.67° C | 85% | 1002.3 hPa | - | 12.96 m/s, 224° | - | - |
| 1777972035 | 6.67° C | 85% | 1002.1 hPa | - | 12.52 m/s, 223° | - | - |
| 1777970836 | 6.67° C | 84% | 1002 hPa | - | 12.52 m/s, 227° | - | - |
| 1777969635 | 6.67° C | 84% | 1001.9 hPa | - | 11.62 m/s, 228° | - | - |
| 1777968435 | 6.11° C | 84% | 1001.8 hPa | - | 12.52 m/s, 223° | - | - |
| 1777967235 | 6.11° C | 85% | 1001.7 hPa | - | 11.62 m/s, 222° | - | - |
| 1777966035 | 6.11° C | 85% | 1001.6 hPa | - | 11.18 m/s, 222° | - | - |
| 1777964835 | 6.11° C | 83% | 1001.4 hPa | - | 10.73 m/s, 223° | - | - |
| 1777963635 | 6.11° C | 83% | 1001.3 hPa | - | 10.28 m/s, 223° | - | - |
* Rain since midnight (hover to see other rain measurements)
** Current wind speed in m/s (hover to see current wind gust speed)